sensor_id;sensor_type;location;lat;lon;timestamp;pressure;altitude;pressure_sealevel;temperature;humidity
72157;BME280;60035;52.122;5.406;2023-12-20T00:01:37;101724.50;;;5.94;100.00
72157;BME280;60035;52.122;5.406;2023-12-20T00:04:04;101722.81;;;5.95;100.00
72157;BME280;60035;52.122;5.406;2023-12-20T00:06:30;101727.06;;;5.94;100.00
72157;BME280;60035;52.122;5.406;2023-12-20T00:08:58;101718.56;;;5.92;100.00
72157;BME280;60035;52.122;5.406;2023-12-20T00:11:25;101712.63;;;5.90;100.00
72157;BME280;60035;52.122;5.406;2023-12-20T00:13:52;101708.34;;;5.84;100.00
72157;BME280;60035;52.122;5.406;2023-12-20T00:16:18;101704.09;;;5.80;100.00
72157;BME280;60035;52.122;5.406;2023-12-20T00:18:48;101708.34;;;5.78;100.00
72157;BME280;60035;52.122;5.406;2023-12-20T00:21:15;101711.72;;;5.77;100.00
72157;BME280;60035;52.122;5.406;2023-12-20T00:23:41;101706.66;;;5.74;100.00
72157;BME280;60035;52.122;5.406;2023-12-20T00:26:08;101716.78;;;5.71;100.00
72157;BME280;60035;52.122;5.406;2023-12-20T00:28:35;101709.16;;;5.66;100.00
72157;BME280;60035;52.122;5.406;2023-12-20T00:31:24;101704.91;;;5.64;100.00
72157;BME280;60035;52.122;5.406;2023-12-20T00:33:51;101709.97;;;5.62;100.00
72157;BME280;60035;52.122;5.406;2023-12-20T00:36:18;101713.34;;;5.60;100.00
72157;BME280;60035;52.122;5.406;2023-12-20T00:38:57;101704.84;;;5.58;100.00
72157;BME280;60035;52.122;5.406;2023-12-20T00:41:24;101713.31;;;5.55;100.00
72157;BME280;60035;52.122;5.406;2023-12-20T00:43:50;101709.06;;;5.51;100.00
72157;BME280;60035;52.122;5.406;2023-12-20T00:46:17;101708.22;;;5.50;100.00
72157;BME280;60035;52.122;5.406;2023-12-20T00:48:44;101703.97;;;5.46;100.00
72157;BME280;60035;52.122;5.406;2023-12-20T00:51:12;101710.72;;;5.46;100.00
72157;BME280;60035;52.122;5.406;2023-12-20T00:53:38;101701.38;;;5.45;100.00
72157;BME280;60035;52.122;5.406;2023-12-20T00:56:05;101698.84;;;5.42;100.00
72157;BME280;60035;52.122;5.406;2023-12-20T00:58:32;101705.59;;;5.38;100.00
72157;BME280;60035;52.122;5.406;2023-12-20T01:00:59;101714.06;;;5.37;100.00
72157;BME280;60035;52.122;5.406;2023-12-20T01:03:26;101705.59;;;5.37;100.00
72157;BME280;60035;52.122;5.406;2023-12-20T01:05:52;101702.19;;;5.34;100.00
72157;BME280;60035;52.122;5.406;2023-12-20T01:08:19;101697.94;;;5.33;100.00
72157;BME280;60035;52.122;5.406;2023-12-20T01:10:53;101694.53;;;5.33;100.00
72157;BME280;60035;52.122;5.406;2023-12-20T01:13:20;101697.94;;;5.32;100.00
72157;BME280;60035;52.122;5.406;2023-12-20T01:15:46;101694.53;;;5.31;100.00
72157;BME280;60035;52.122;5.406;2023-12-20T01:18:14;101689.44;;;5.28;100.00
72157;BME280;60035;52.122;5.406;2023-12-20T01:20:50;101691.13;;;5.26;100.00
72157;BME280;60035;52.122;5.406;2023-12-20T01:23:17;101685.19;;;5.24;100.00
72157;BME280;60035;52.122;5.406;2023-12-20T01:25:43;101694.47;;;5.22;100.00
72157;BME280;60035;52.122;5.406;2023-12-20T01:28:10;101701.25;;;5.22;100.00
72157;BME280;60035;52.122;5.406;2023-12-20T01:30:46;101710.56;;;5.21;100.00
72157;BME280;60035;52.122;5.406;2023-12-20T01:33:13;101713.13;;;5.23;100.00
72157;BME280;60035;52.122;5.406;2023-12-20T01:35:40;101708.03;;;5.23;100.00
72157;BME280;60035;52.122;5.406;2023-12-20T01:38:06;101713.13;;;5.24;100.00
72157;BME280;60035;52.122;5.406;2023-12-20T01:40:44;101715.69;;;5.26;100.00
72157;BME280;60035;52.122;5.406;2023-12-20T01:43:11;101713.13;;;5.27;100.00
72157;BME280;60035;52.122;5.406;2023-12-20T01:45:39;101706.41;;;5.29;100.00
72157;BME280;60035;52.122;5.406;2023-12-20T01:48:06;101702.16;;;5.31;100.00
72157;BME280;60035;52.122;5.406;2023-12-20T01:51:05;101700.50;;;5.32;100.00
72157;BME280;60035;52.122;5.406;2023-12-20T01:53:32;101697.94;;;5.33;100.00
72157;BME280;60035;52.122;5.406;2023-12-20T01:55:59;101696.28;;;5.37;100.00
72157;BME280;60035;52.122;5.406;2023-12-20T01:58:26;101695.44;;;5.38;100.00
72157;BME280;60035;52.122;5.406;2023-12-20T02:01:06;101706.47;;;5.40;100.00
72157;BME280;60035;52.122;5.406;2023-12-20T02:03:33;101703.91;;;5.42;100.00
72157;BME280;60035;52.122;5.406;2023-12-20T02:06:04;101704.75;;;5.42;100.00
72157;BME280;60035;52.122;5.406;2023-12-20T02:08:31;101703.09;;;5.41;100.00
72157;BME280;60035;52.122;5.406;2023-12-20T02:14:45;101694.59;;;5.42;100.00
72157;BME280;60035;52.122;5.406;2023-12-20T02:17:12;101698.00;;;5.43;100.00
72157;BME280;60035;52.122;5.406;2023-12-20T02:22:59;101692.09;;;5.51;100.00
72157;BME280;60035;52.122;5.406;2023-12-20T02:25:26;101683.66;;;5.54;100.00
72157;BME280;60035;52.122;5.406;2023-12-20T02:27:52;101687.91;;;5.58;100.00
72157;BME280;60035;52.122;5.406;2023-12-20T02:30:29;101691.31;;;5.62;100.00
72157;BME280;60035;52.122;5.406;2023-12-20T02:32:56;101695.56;;;5.63;100.00
72157;BME280;60035;52.122;5.406;2023-12-20T02:35:22;101688.81;;;5.65;100.00
72157;BME280;60035;52.122;5.406;2023-12-20T02:37:49;101683.72;;;5.66;100.00
72157;BME280;60035;52.122;5.406;2023-12-20T02:40:41;101682.91;;;5.69;100.00
72157;BME280;60035;52.122;5.406;2023-12-20T02:43:15;101689.66;;;5.70;100.00
72157;BME280;60035;52.122;5.406;2023-12-20T02:45:42;101671.91;;;5.72;100.00
72157;BME280;60035;52.122;5.406;2023-12-20T02:48:08;101673.56;;;5.73;100.00
72157;BME280;60035;52.122;5.406;2023-12-20T02:50:45;101672.75;;;5.74;100.00
72157;BME280;60035;52.122;5.406;2023-12-20T02:53:13;101673.59;;;5.74;100.00
72157;BME280;60035;52.122;5.406;2023-12-20T02:55:39;101669.38;;;5.78;100.00
72157;BME280;60035;52.122;5.406;2023-12-20T02:58:06;101662.59;;;5.78;100.00
72157;BME280;60035;52.122;5.406;2023-12-20T03:00:33;101663.44;;;5.80;100.00
72157;BME280;60035;52.122;5.406;2023-12-20T03:03:00;101660.91;;;5.77;100.00
72157;BME280;60035;52.122;5.406;2023-12-20T03:05:27;101659.19;;;5.78;100.00
72157;BME280;60035;52.122;5.406;2023-12-20T03:07:54;101663.44;;;5.79;100.00
72157;BME280;60035;52.122;5.406;2023-12-20T03:10:22;101663.44;;;5.80;100.00
72157;BME280;60035;52.122;5.406;2023-12-20T03:12:53;101654.97;;;5.81;100.00
72157;BME280;60035;52.122;5.406;2023-12-20T03:15:19;101663.47;;;5.83;100.00
72157;BME280;60035;52.122;5.406;2023-12-20T03:17:46;101660.94;;;5.88;100.00
72157;BME280;60035;52.122;5.406;2023-12-20T03:20:18;101662.63;;;5.89;100.00
72157;BME280;60035;52.122;5.406;2023-12-20T03:22:45;101652.47;;;5.91;100.00
72157;BME280;60035;52.122;5.406;2023-12-20T03:25:12;101650.75;;;5.91;100.00
72157;BME280;60035;52.122;5.406;2023-12-20T03:27:38;101645.69;;;5.91;100.00
72157;BME280;60035;52.122;5.406;2023-12-20T03:30:08;101645.72;;;5.93;100.00
72157;BME280;60035;52.122;5.406;2023-12-20T03:32:36;101639.75;;;5.92;100.00
72157;BME280;60035;52.122;5.406;2023-12-20T03:35:04;101644.00;;;5.92;100.00
72157;BME280;60035;52.122;5.406;2023-12-20T03:37:31;101645.72;;;5.93;100.00
72157;BME280;60035;52.122;5.406;2023-12-20T03:40:04;101635.56;;;5.99;100.00
72157;BME280;60035;52.122;5.406;2023-12-20T03:42:31;101651.69;;;6.04;100.00
72157;BME280;60035;52.122;5.406;2023-12-20T03:44:57;101648.31;;;6.05;100.00
72157;BME280;60035;52.122;5.406;2023-12-20T03:47:24;101633.91;;;6.10;100.00
72157;BME280;60035;52.122;5.406;2023-12-20T03:49:55;101644.91;;;6.12;100.00
72157;BME280;60035;52.122;5.406;2023-12-20T03:52:22;101650.03;;;6.14;100.00
72157;BME280;60035;52.122;5.406;2023-12-20T03:54:49;101641.53;;;6.10;100.00
72157;BME280;60035;52.122;5.406;2023-12-20T03:57:15;101644.91;;;6.09;100.00
72157;BME280;60035;52.122;5.406;2023-12-20T03:59:49;101633.91;;;6.07;100.00
72157;BME280;60035;52.122;5.406;2023-12-20T04:02:16;101635.59;;;6.07;100.00
72157;BME280;60035;52.122;5.406;2023-12-20T04:04:44;101638.13;;;6.05;100.00
72157;BME280;60035;52.122;5.406;2023-12-20T04:07:11;101639.84;;;6.08;100.00
72157;BME280;60035;52.122;5.406;2023-12-20T04:09:57;101637.31;;;6.15;100.00
72157;BME280;60035;52.122;5.406;2023-12-20T04:12:24;101642.38;;;6.22;100.00
72157;BME280;60035;52.122;5.406;2023-12-20T04:14:51;101644.09;;;6.23;100.00
72157;BME280;60035;52.122;5.406;2023-12-20T04:17:17;101631.41;;;6.26;100.00
72157;BME280;60035;52.122;5.406;2023-12-20T04:19:47;101621.22;;;6.30;100.00
72157;BME280;60035;52.122;5.406;2023-12-20T04:22:14;101616.13;;;6.33;100.00
72157;BME280;60035;52.122;5.406;2023-12-20T04:24:41;101626.31;;;6.37;100.00
72157;BME280;60035;52.122;5.406;2023-12-20T04:27:11;101633.09;;;6.41;100.00
72157;BME280;60035;52.122;5.406;2023-12-20T04:29:49;101618.66;;;6.43;100.00
72157;BME280;60035;52.122;5.406;2023-12-20T04:32:15;101627.16;;;6.46;100.00
72157;BME280;60035;52.122;5.406;2023-12-20T04:34:42;101630.56;;;6.48;100.00
72157;BME280;60035;52.122;5.406;2023-12-20T04:37:09;101637.34;;;6.51;100.00
72157;BME280;60035;52.122;5.406;2023-12-20T04:39:37;101625.47;;;6.52;100.00
72157;BME280;60035;52.122;5.406;2023-12-20T04:42:04;101629.72;;;6.56;100.00
72157;BME280;60035;52.122;5.406;2023-12-20T04:44:30;101616.97;;;6.57;100.00
72157;BME280;60035;52.122;5.406;2023-12-20T04:46:57;101618.69;;;6.58;100.00
72157;BME280;60035;52.122;5.406;2023-12-20T04:49:28;101625.47;;;6.59;100.00
72157;BME280;60035;52.122;5.406;2023-12-20T04:51:55;101624.63;;;6.65;100.00
72157;BME280;60035;52.122;5.406;2023-12-20T04:54:23;101625.47;;;6.70;100.00
72157;BME280;60035;52.122;5.406;2023-12-20T04:56:49;101627.16;;;6.73;100.00
72157;BME280;60035;52.122;5.406;2023-12-20T04:59:19;101609.31;;;6.76;100.00
72157;BME280;60035;52.122;5.406;2023-12-20T05:01:46;101606.81;;;6.79;100.00
72157;BME280;60035;52.122;5.406;2023-12-20T05:04:13;101607.63;;;6.79;100.00
72157;BME280;60035;52.122;5.406;2023-12-20T05:06:39;101603.38;;;6.80;100.00
72157;BME280;60035;52.122;5.406;2023-12-20T05:09:07;101616.13;;;6.78;100.00
72157;BME280;60035;52.122;5.406;2023-12-20T05:11:35;101611.03;;;6.83;100.00
72157;BME280;60035;52.122;5.406;2023-12-20T05:14:01;101610.19;;;6.86;100.00
72157;BME280;60035;52.122;5.406;2023-12-20T05:16:28;101612.69;;;6.90;100.00
72157;BME280;60035;52.122;5.406;2023-12-20T05:22:05;101614.44;;;6.87;100.00
72157;BME280;60035;52.122;5.406;2023-12-20T05:24:32;101609.31;;;6.83;100.00
72157;BME280;60035;52.122;5.406;2023-12-20T05:26:58;101616.09;;;6.86;100.00
72157;BME280;60035;52.122;5.406;2023-12-20T05:29:25;101626.28;;;6.86;100.00
72157;BME280;60035;52.122;5.406;2023-12-20T05:31:52;101611.84;;;6.85;100.00
72157;BME280;60035;52.122;5.406;2023-12-20T05:34:19;101615.28;;;6.84;100.00
72157;BME280;60035;52.122;5.406;2023-12-20T05:36:46;101616.94;;;6.85;100.00
72157;BME280;60035;52.122;5.406;2023-12-20T05:39:17;101616.09;;;6.86;100.00
72157;BME280;60035;52.122;5.406;2023-12-20T05:41:45;101622.06;;;6.87;100.00
72157;BME280;60035;52.122;5.406;2023-12-20T05:44:12;101611.03;;;6.83;100.00
72157;BME280;60035;52.122;5.406;2023-12-20T05:46:38;101611.88;;;6.83;100.00
72157;BME280;60035;52.122;5.406;2023-12-20T05:49:16;101616.09;;;6.88;100.00
72157;BME280;60035;52.122;5.406;2023-12-20T05:51:42;101608.44;;;6.89;100.00
72157;BME280;60035;52.122;5.406;2023-12-20T05:54:09;101616.13;;;6.91;100.00
72157;BME280;60035;52.122;5.406;2023-12-20T05:56:36;101616.94;;;6.91;100.00
72157;BME280;60035;52.122;5.406;2023-12-20T05:59:08;101616.09;;;6.92;100.00
72157;BME280;60035;52.122;5.406;2023-12-20T06:01:34;101616.09;;;6.94;100.00
72157;BME280;60035;52.122;5.406;2023-12-20T06:04:01;101614.38;;;6.94;100.00
72157;BME280;60035;52.122;5.406;2023-12-20T06:06:28;101616.09;;;6.94;100.00
72157;BME280;60035;52.122;5.406;2023-12-20T06:08:55;101609.31;;;6.97;100.00
72157;BME280;60035;52.122;5.406;2023-12-20T06:11:23;101625.44;;;6.98;100.00
72157;BME280;60035;52.122;5.406;2023-12-20T06:13:49;101603.34;;;6.98;100.00
72157;BME280;60035;52.122;5.406;2023-12-20T06:16:18;101605.88;;;6.98;100.00
72157;BME280;60035;52.122;5.406;2023-12-20T06:18:45;101610.13;;;6.99;100.00
72157;BME280;60035;52.122;5.406;2023-12-20T06:21:11;101605.03;;;6.99;100.00
72157;BME280;60035;52.122;5.406;2023-12-20T06:23:39;101606.75;;;7.02;100.00
72157;BME280;60035;52.122;5.406;2023-12-20T06:26:06;101602.50;;;7.03;100.00
72157;BME280;60035;52.122;5.406;2023-12-20T06:28:32;101610.97;;;7.05;100.00
72157;BME280;60035;52.122;5.406;2023-12-20T06:30:59;101605.88;;;7.09;100.00
72157;BME280;60035;52.122;5.406;2023-12-20T06:33:27;101610.97;;;7.12;100.00
72157;BME280;60035;52.122;5.406;2023-12-20T06:35:54;101610.97;;;7.12;100.00
72157;BME280;60035;52.122;5.406;2023-12-20T06:38:20;101605.88;;;7.14;100.00
72157;BME280;60035;52.122;5.406;2023-12-20T06:40:47;101597.38;;;7.15;100.00
72157;BME280;60035;52.122;5.406;2023-12-20T06:43:14;101597.38;;;7.15;100.00
72157;BME280;60035;52.122;5.406;2023-12-20T06:46:01;101607.56;;;7.16;100.00
72157;BME280;60035;52.122;5.406;2023-12-20T06:48:27;101599.06;;;7.17;100.00
72157;BME280;60035;52.122;5.406;2023-12-20T06:51:14;101592.25;;;7.18;100.00
72157;BME280;60035;52.122;5.406;2023-12-20T06:53:41;101588.84;;;7.21;100.00
72157;BME280;60035;52.122;5.406;2023-12-20T06:56:10;101592.25;;;7.18;100.00
72157;BME280;60035;52.122;5.406;2023-12-20T06:58:40;101599.06;;;7.19;100.00
72157;BME280;60035;52.122;5.406;2023-12-20T07:01:14;101595.66;;;7.20;100.00
72157;BME280;60035;52.122;5.406;2023-12-20T07:03:41;101588.88;;;7.19;100.00
72157;BME280;60035;52.122;5.406;2023-12-20T07:06:08;101590.59;;;7.17;100.00
72157;BME280;60035;52.122;5.406;2023-12-20T07:08:35;101582.06;;;7.20;100.00
72157;BME280;60035;52.122;5.406;2023-12-20T07:11:02;101584.63;;;7.20;100.00
72157;BME280;60035;52.122;5.406;2023-12-20T07:13:29;101588.84;;;7.22;100.00
72157;BME280;60035;52.122;5.406;2023-12-20T07:15:56;101604.13;;;7.25;100.00
72157;BME280;60035;52.122;5.406;2023-12-20T07:18:23;101582.03;;;7.27;100.00
72157;BME280;60035;52.122;5.406;2023-12-20T07:20:50;101577.81;;;7.25;100.00
72157;BME280;60035;52.122;5.406;2023-12-20T07:23:17;101578.66;;;7.25;100.00
72157;BME280;60035;52.122;5.406;2023-12-20T07:25:43;101574.41;;;7.26;100.00
72157;BME280;60035;52.122;5.406;2023-12-20T07:28:10;101572.72;;;7.26;100.00
72157;BME280;60035;52.122;5.406;2023-12-20T07:33:44;101575.28;;;7.26;100.00
72157;BME280;60035;52.122;5.406;2023-12-20T07:36:12;101571.00;;;7.28;100.00
72157;BME280;60035;52.122;5.406;2023-12-20T07:38:40;101565.06;;;7.31;100.00
72157;BME280;60035;52.122;5.406;2023-12-20T07:41:12;101570.13;;;7.32;100.00
72157;BME280;60035;52.122;5.406;2023-12-20T07:43:38;101573.56;;;7.33;100.00
72157;BME280;60035;52.122;5.406;2023-12-20T07:46:06;101573.53;;;7.36;100.00
72157;BME280;60035;52.122;5.406;2023-12-20T07:48:35;101581.16;;;7.39;100.00
72157;BME280;60035;52.122;5.406;2023-12-20T07:51:03;101586.25;;;7.39;100.00
72157;BME280;60035;52.122;5.406;2023-12-20T07:53:30;101589.63;;;7.43;100.00
72157;BME280;60035;52.122;5.406;2023-12-20T07:55:56;101595.56;;;7.43;100.00
72157;BME280;60035;52.122;5.406;2023-12-20T07:58:23;101593.88;;;7.44;100.00
72157;BME280;60035;52.122;5.406;2023-12-20T08:01:06;101594.69;;;7.46;100.00
72157;BME280;60035;52.122;5.406;2023-12-20T08:03:33;101603.22;;;7.45;100.00
72157;BME280;60035;52.122;5.406;2023-12-20T08:06:00;101601.53;;;7.42;100.00
72157;BME280;60035;52.122;5.406;2023-12-20T08:08:27;101610.84;;;7.48;100.00
72157;BME280;60035;52.122;5.406;2023-12-20T08:11:06;101610.00;;;7.50;100.00
72157;BME280;60035;52.122;5.406;2023-12-20T08:13:32;101612.53;;;7.50;100.00
72157;BME280;60035;52.122;5.406;2023-12-20T08:15:59;101613.38;;;7.49;100.00
72157;BME280;60035;52.122;5.406;2023-12-20T08:18:29;101605.72;;;7.51;100.00
72157;BME280;60035;52.122;5.406;2023-12-20T08:20:56;101606.56;;;7.53;100.00
72157;BME280;60035;52.122;5.406;2023-12-20T08:23:25;101608.28;;;7.56;100.00
72157;BME280;60035;52.122;5.406;2023-12-20T08:25:54;101603.16;;;7.56;100.00
72157;BME280;60035;52.122;5.406;2023-12-20T08:28:20;101598.91;;;7.58;100.00
72157;BME280;60035;52.122;5.406;2023-12-20T08:30:55;101592.94;;;7.62;100.00
72157;BME280;60035;52.122;5.406;2023-12-20T08:33:22;101598.03;;;7.62;100.00
72157;BME280;60035;52.122;5.406;2023-12-20T08:35:48;101596.31;;;7.64;100.00
72157;BME280;60035;52.122;5.406;2023-12-20T08:38:15;101597.19;;;7.63;100.00
72157;BME280;60035;52.122;5.406;2023-12-20T08:40:48;101591.22;;;7.65;100.00
72157;BME280;60035;52.122;5.406;2023-12-20T08:43:15;101586.97;;;7.66;100.00
72157;BME280;60035;52.122;5.406;2023-12-20T08:45:41;101589.53;;;7.66;100.00
72157;BME280;60035;52.122;5.406;2023-12-20T08:48:08;101598.00;;;7.66;100.00
72157;BME280;60035;52.122;5.406;2023-12-20T08:50:44;101597.16;;;7.67;100.00
72157;BME280;60035;52.122;5.406;2023-12-20T08:53:11;101592.91;;;7.66;100.00
72157;BME280;60035;52.122;5.406;2023-12-20T08:55:38;101586.97;;;7.67;100.00
72157;BME280;60035;52.122;5.406;2023-12-20T08:58:06;101592.09;;;7.66;100.00
72157;BME280;60035;52.122;5.406;2023-12-20T09:00:48;101593.75;;;7.65;100.00
72157;BME280;60035;52.122;5.406;2023-12-20T09:03:15;101592.09;;;7.66;100.00
72157;BME280;60035;52.122;5.406;2023-12-20T09:05:41;101594.63;;;7.63;100.00
72157;BME280;60035;52.122;5.406;2023-12-20T09:08:08;101580.19;;;7.60;100.00
72157;BME280;60035;52.122;5.406;2023-12-20T09:10:37;101585.31;;;7.59;100.00
72157;BME280;60035;52.122;5.406;2023-12-20T09:13:04;101590.41;;;7.59;100.00
72157;BME280;60035;52.122;5.406;2023-12-20T09:15:31;101594.69;;;7.57;100.00
72157;BME280;60035;52.122;5.406;2023-12-20T09:18:01;101579.38;;;7.55;100.00
72157;BME280;60035;52.122;5.406;2023-12-20T09:20:33;101587.91;;;7.54;100.00
72157;BME280;60035;52.122;5.406;2023-12-20T09:23:00;101590.44;;;7.54;100.00
72157;BME280;60035;52.122;5.406;2023-12-20T09:25:27;101584.47;;;7.58;100.00
72157;BME280;60035;52.122;5.406;2023-12-20T09:27:55;101582.72;;;7.62;100.00
72157;BME280;60035;52.122;5.406;2023-12-20T09:30:39;101586.97;;;7.64;100.00
72157;BME280;60035;52.122;5.406;2023-12-20T09:33:07;101575.06;;;7.68;100.00
72157;BME280;60035;52.122;5.406;2023-12-20T09:35:35;101582.69;;;7.71;100.00
72157;BME280;60035;52.122;5.406;2023-12-20T09:38:02;101585.22;;;7.76;100.00
72157;BME280;60035;52.122;5.406;2023-12-20T09:40:41;101584.31;;;7.84;100.00
72157;BME280;60035;52.122;5.406;2023-12-20T09:43:14;101579.19;;;7.89;100.00
72157;BME280;60035;52.122;5.406;2023-12-20T09:45:46;101585.09;;;7.94;100.00
72157;BME280;60035;52.122;5.406;2023-12-20T09:48:13;101585.94;;;7.98;100.00
72157;BME280;60035;52.122;5.406;2023-12-20T09:50:44;101591.00;;;8.01;100.00
72157;BME280;60035;52.122;5.406;2023-12-20T09:53:17;101599.50;;;8.03;100.00
72157;BME280;60035;52.122;5.406;2023-12-20T09:55:45;101591.78;;;8.12;100.00
72157;BME280;60035;52.122;5.406;2023-12-20T09:58:12;101582.38;;;8.17;100.00
72157;BME280;60035;52.122;5.406;2023-12-20T10:00:39;101591.72;;;8.22;100.00
72157;BME280;60035;52.122;5.406;2023-12-20T10:03:06;101595.06;;;8.27;100.00
72157;BME280;60035;52.122;5.406;2023-12-20T10:05:34;101590.81;;;8.29;100.00
72157;BME280;60035;52.122;5.406;2023-12-20T10:08:02;101612.03;;;8.34;100.00
72157;BME280;60035;52.122;5.406;2023-12-20T10:10:46;101602.63;;;8.41;100.00
72157;BME280;60035;52.122;5.406;2023-12-20T10:13:14;101597.47;;;8.44;100.00
72157;BME280;60035;52.122;5.406;2023-12-20T10:15:41;101613.66;;;8.44;100.00
72157;BME280;60035;52.122;5.406;2023-12-20T10:18:09;101606.03;;;8.46;100.00
72157;BME280;60035;52.122;5.406;2023-12-20T10:20:50;101600.06;;;8.47;100.00
72157;BME280;60035;52.122;5.406;2023-12-20T10:23:17;101602.63;;;8.47;100.00
72157;BME280;60035;52.122;5.406;2023-12-20T10:25:55;101601.75;;;8.46;100.00
72157;BME280;60035;52.122;5.406;2023-12-20T10:28:22;101599.19;;;8.46;100.00
72157;BME280;60035;52.122;5.406;2023-12-20T10:30:54;101595.78;;;8.47;100.00
72157;BME280;60035;52.122;5.406;2023-12-20T10:33:27;101592.38;;;8.50;100.00
72157;BME280;60035;52.122;5.406;2023-12-20T10:36:01;101590.66;;;8.54;100.00
72157;BME280;60035;52.122;5.406;2023-12-20T10:38:28;101584.66;;;8.56;100.00
72157;BME280;60035;52.122;5.406;2023-12-20T10:41:09;101582.91;;;8.60;100.00
72157;BME280;60035;52.122;5.406;2023-12-20T10:43:36;101586.31;;;8.62;100.00
72157;BME280;60035;52.122;5.406;2023-12-20T10:46:04;101576.94;;;8.62;100.00
72157;BME280;60035;52.122;5.406;2023-12-20T10:48:32;101578.59;;;8.65;100.00
72157;BME280;60035;52.122;5.406;2023-12-20T10:50:59;101577.78;;;8.64;100.00
72157;BME280;60035;52.122;5.406;2023-12-20T10:53:27;101585.41;;;8.66;100.00
72157;BME280;60035;52.122;5.406;2023-12-20T10:55:55;101581.13;;;8.70;100.00
72157;BME280;60035;52.122;5.406;2023-12-20T10:58:26;101564.94;;;8.72;100.00
72157;BME280;60035;52.122;5.406;2023-12-20T11:01:00;101576.00;;;8.71;100.00
72157;BME280;60035;52.122;5.406;2023-12-20T11:03:32;101572.56;;;8.75;100.00
72157;BME280;60035;52.122;5.406;2023-12-20T11:06:27;101570.00;;;8.75;100.00
72157;BME280;60035;52.122;5.406;2023-12-20T11:09:35;101569.97;;;8.78;100.00
72157;BME280;60035;52.122;5.406;2023-12-20T11:14:50;101555.34;;;8.94;100.00
72157;BME280;60035;52.122;5.406;2023-12-20T11:17:17;101558.69;;;9.01;100.00
72157;BME280;60035;52.122;5.406;2023-12-20T11:22:29;101554.28;;;9.11;100.00
72157;BME280;60035;52.122;5.406;2023-12-20T11:25:04;101545.78;;;9.10;100.00
72157;BME280;60035;52.122;5.406;2023-12-20T11:27:31;101531.38;;;9.05;100.00
72157;BME280;60035;52.122;5.406;2023-12-20T11:29:59;101542.47;;;9.04;100.00
72157;BME280;60035;52.122;5.406;2023-12-20T11:32:28;101536.47;;;9.08;100.00
72157;BME280;60035;52.122;5.406;2023-12-20T11:35:00;101538.91;;;9.15;100.00
72157;BME280;60035;52.122;5.406;2023-12-20T11:37:29;101549.03;;;9.22;100.00
72157;BME280;60035;52.122;5.406;2023-12-20T11:40:06;101540.47;;;9.26;100.00
72157;BME280;60035;52.122;5.406;2023-12-20T11:42:38;101541.31;;;9.28;100.00
72157;BME280;60035;52.122;5.406;2023-12-20T11:45:05;101536.19;;;9.28;100.00
72157;BME280;60035;52.122;5.406;2023-12-20T11:47:32;101539.59;;;9.28;100.00
72157;BME280;60035;52.122;5.406;2023-12-20T11:50:06;101530.22;;;9.29;100.00
72157;BME280;60035;52.122;5.406;2023-12-20T11:52:32;101515.72;;;9.29;100.00
72157;BME280;60035;52.122;5.406;2023-12-20T11:54:59;101515.72;;;9.31;100.00
72157;BME280;60035;52.122;5.406;2023-12-20T11:57:26;101506.31;;;9.33;100.00
72157;BME280;60035;52.122;5.406;2023-12-20T12:00:03;101502.03;;;9.33;100.00
72157;BME280;60035;52.122;5.406;2023-12-20T12:02:30;101517.38;;;9.33;100.00
72157;BME280;60035;52.122;5.406;2023-12-20T12:04:58;101506.34;;;9.31;100.00
72157;BME280;60035;52.122;5.406;2023-12-20T12:07:25;101525.09;;;9.30;100.00
72157;BME280;60035;52.122;5.406;2023-12-20T12:09:52;101511.44;;;9.30;100.00
72157;BME280;60035;52.122;5.406;2023-12-20T12:12:19;101515.72;;;9.29;100.00
72157;BME280;60035;52.122;5.406;2023-12-20T12:14:49;101526.81;;;9.28;100.00
72157;BME280;60035;52.122;5.406;2023-12-20T12:17:16;101508.91;;;9.30;100.00
72157;BME280;60035;52.122;5.406;2023-12-20T12:19:43;101539.63;;;9.27;100.00
72157;BME280;60035;52.122;5.406;2023-12-20T12:22:12;101528.56;;;9.26;100.00
72157;BME280;60035;52.122;5.406;2023-12-20T12:24:45;101529.41;;;9.27;100.00
72157;BME280;60035;52.122;5.406;2023-12-20T12:27:13;101507.19;;;9.32;100.00
72157;BME280;60035;52.122;5.406;2023-12-20T12:30:09;101507.19;;;9.32;100.00
72157;BME280;60035;52.122;5.406;2023-12-20T12:32:36;101500.34;;;9.32;100.00
72157;BME280;60035;52.122;5.406;2023-12-20T12:35:04;101498.66;;;9.33;100.00
72157;BME280;60035;52.122;5.406;2023-12-20T12:37:38;101491.81;;;9.33;100.00
72157;BME280;60035;52.122;5.406;2023-12-20T12:40:12;101488.44;;;9.33;100.00
72157;BME280;60035;52.122;5.406;2023-12-20T12:42:41;101490.13;;;9.32;100.00
72157;BME280;60035;52.122;5.406;2023-12-20T12:45:09;101482.47;;;9.32;100.00
72157;BME280;60035;52.122;5.406;2023-12-20T12:47:35;101489.28;;;9.32;100.00
72157;BME280;60035;52.122;5.406;2023-12-20T12:50:13;101477.38;;;9.31;100.00
72157;BME280;60035;52.122;5.406;2023-12-20T12:52:40;101475.69;;;9.30;100.00
72157;BME280;60035;52.122;5.406;2023-12-20T12:55:07;101471.44;;;9.30;100.00
72157;BME280;60035;52.122;5.406;2023-12-20T12:57:33;101472.25;;;9.31;100.00
72157;BME280;60035;52.122;5.406;2023-12-20T13:00:05;101470.56;;;9.30;100.00
72157;BME280;60035;52.122;5.406;2023-12-20T13:02:34;101479.13;;;9.29;100.00
72157;BME280;60035;52.122;5.406;2023-12-20T13:05:01;101455.22;;;9.30;100.00
72157;BME280;60035;52.122;5.406;2023-12-20T13:07:29;101453.53;;;9.30;100.00
72157;BME280;60035;52.122;5.406;2023-12-20T13:09:58;101464.66;;;9.28;100.00
72157;BME280;60035;52.122;5.406;2023-12-20T13:12:24;101452.69;;;9.28;100.00
72157;BME280;60035;52.122;5.406;2023-12-20T13:14:51;101445.94;;;9.24;100.00
72157;BME280;60035;52.122;5.406;2023-12-20T13:17:18;101439.16;;;9.23;100.00
72157;BME280;60035;52.122;5.406;2023-12-20T13:19:55;101436.63;;;9.22;100.00